Time;durP1;ratioP1;P1;durP2;ratioP2;P2;SDS_P1;SDS_P2;PMS_P1;PMS_P2;Temp;Humidity;BMP_temperature;BMP_pressure;BME280_temperature;BME280_humidity;BME280_pressure;Samples;Min_cycle;Max_cycle;Signal;HPM_P1;HPM_P2
2023/12/08 00:00:07;;;;;;;9.55;3.80;;;-4.40;99.90;;;;;;4958090;28;20027;-77
2023/12/08 00:02:33;;;;;;;8.02;4.15;;;-4.40;99.90;;;;;;4975461;28;20393;-77
2023/12/08 00:04:59;;;;;;;10.57;3.53;;;-4.30;99.90;;;;;;4975396;28;20442;-77
2023/12/08 00:07:24;;;;;;;11.20;3.47;;;-4.40;99.90;;;;;;4957585;28;20065;-77
2023/12/08 00:09:50;;;;;;;9.15;4.30;;;-4.20;99.90;;;;;;4975281;28;20023;-77
2023/12/08 00:12:16;;;;;;;6.22;3.75;;;-4.60;99.90;;;;;;4957792;28;20437;-77
2023/12/08 00:14:41;;;;;;;6.03;3.65;;;-4.60;99.90;;;;;;4975288;28;20026;-77
2023/12/08 00:17:07;;;;;;;8.15;4.43;;;-4.60;99.90;;;;;;4974600;28;20027;-76
2023/12/08 00:19:33;;;;;;;9.27;4.50;;;-4.70;99.90;;;;;;4957775;28;20030;-77
2023/12/08 00:21:58;;;;;;;11.70;4.05;;;-4.70;99.90;;;;;;4975141;28;20035;-77
2023/12/08 00:24:24;;;;;;;7.45;3.72;;;-4.80;99.90;;;;;;4957731;28;20397;-76
2023/12/08 00:26:50;;;;;;;9.10;4.70;;;-4.80;99.90;;;;;;4957023;28;20030;-75
2023/12/08 00:29:19;;;;;;;4.35;3.30;;;-4.80;99.90;;;;;;4974856;28;20536;-77
2023/12/08 00:31:45;;;;;;;8.30;4.47;;;-4.80;99.90;;;;;;4957549;28;20070;-77
2023/12/08 00:34:11;;;;;;;5.45;3.05;;;-4.80;99.90;;;;;;4956704;28;20121;-76
2023/12/08 00:36:36;;;;;;;5.88;3.97;;;-4.90;99.90;;;;;;4974571;28;20046;-76
2023/12/08 00:39:02;;;;;;;7.43;4.75;;;-4.90;99.90;;;;;;4974682;28;20478;-75
2023/12/08 00:41:28;;;;;;;8.90;4.13;;;-4.80;99.90;;;;;;4956492;28;20031;-77
2023/12/08 00:43:54;;;;;;;8.07;4.32;;;-4.80;99.90;;;;;;4957501;28;20037;-76
2023/12/08 00:46:19;;;;;;;7.03;3.60;;;-4.80;99.90;;;;;;4956797;28;20046;-76
2023/12/08 00:48:45;;;;;;;5.72;3.72;;;-4.70;99.90;;;;;;4974363;28;20038;-76
2023/12/08 00:51:14;;;;;;;6.82;4.45;;;-4.80;99.90;;;;;;4974714;28;20023;-76
2023/12/08 00:53:41;;;;;;;8.70;5.38;;;-4.80;99.90;;;;;;4974645;28;20034;-76
2023/12/08 00:56:07;;;;;;;7.57;4.70;;;-4.90;99.90;;;;;;4974154;28;20449;-76
2023/12/08 00:58:32;;;;;;;9.75;4.90;;;-4.80;99.90;;;;;;4974297;28;20512;-77
2023/12/08 01:00:58;;;;;;;6.47;3.22;;;-4.80;99.90;;;;;;4974521;28;20038;-76
2023/12/08 01:03:24;;;;;;;6.95;3.63;;;-4.80;99.90;;;;;;4974431;28;20102;-76
2023/12/08 01:05:49;;;;;;;6.15;3.40;;;-4.90;99.90;;;;;;4974183;28;20088;-76
2023/12/08 01:08:15;;;;;;;7.18;3.47;;;-4.90;99.90;;;;;;4956855;28;20378;-77
2023/12/08 01:10:40;;;;;;;12.32;4.55;;;-4.90;99.90;;;;;;4972729;28;20030;-77
2023/12/08 01:13:06;;;;;;;7.75;4.00;;;-4.30;99.90;;;;;;4956744;28;20153;-77
2023/12/08 01:15:33;;;;;;;9.60;3.90;;;-4.90;99.90;;;;;;4974103;28;20121;-77
2023/12/08 01:17:58;;;;;;;10.75;3.72;;;-4.90;99.90;;;;;;4956237;28;20041;-77
2023/12/08 01:20:24;;;;;;;10.27;4.20;;;-5.00;99.90;;;;;;4956628;28;20125;-77
2023/12/08 01:22:51;;;;;;;9.30;3.70;;;-5.00;99.90;;;;;;4973961;28;20033;-77
2023/12/08 01:25:17;;;;;;;6.00;3.35;;;-5.00;99.90;;;;;;4973963;28;20486;-77
2023/12/08 01:27:43;;;;;;;4.85;3.13;;;-5.00;99.90;;;;;;4973615;28;20067;-75
2023/12/08 01:30:09;;;;;;;7.45;3.25;;;-5.00;99.90;;;;;;4956525;28;20019;-77
2023/12/08 01:32:35;;;;;;;5.93;3.50;;;-5.00;99.90;;;;;;4956635;28;20073;-76
2023/12/08 01:35:00;;;;;;;4.00;2.90;;;-5.00;99.90;;;;;;4956334;28;20019;-77
2023/12/08 01:37:26;;;;;;;7.60;3.17;;;-5.00;99.90;;;;;;4956267;28;20457;-77
2023/12/08 01:39:51;;;;;;;8.52;3.60;;;-5.00;99.90;;;;;;4956562;28;20030;-77
2023/12/08 01:42:17;;;;;;;8.13;3.80;;;-5.00;99.90;;;;;;4973859;28;20178;-76
2023/12/08 01:44:43;;;;;;;5.65;3.55;;;-5.10;99.90;;;;;;4975250;28;20027;-77
2023/12/08 01:47:10;;;;;;;8.07;3.22;;;-5.10;99.90;;;;;;4961228;28;20050;-77
2023/12/08 01:49:38;;;;;;;6.90;3.25;;;-5.10;99.90;;;;;;4962364;28;20038;-77
2023/12/08 01:52:06;;;;;;;4.22;2.47;;;-5.30;99.90;;;;;;4979383;28;20090;-77
2023/12/08 01:54:32;;;;;;;8.27;3.60;;;-5.10;99.90;;;;;;4962185;28;20109;-77
2023/12/08 01:56:58;;;;;;;4.22;3.00;;;-5.10;99.90;;;;;;4978957;28;20119;-77
2023/12/08 01:59:24;;;;;;;6.00;3.75;;;-5.10;99.90;;;;;;4979326;28;20153;-77
2023/12/08 02:01:49;;;;;;;10.45;3.72;;;-5.10;99.90;;;;;;4979395;28;20059;-77
2023/12/08 02:04:15;;;;;;;8.20;3.65;;;-5.10;99.90;;;;;;4961456;28;20401;-77
2023/12/08 02:06:41;;;;;;;5.70;2.70;;;-5.20;99.90;;;;;;4978844;28;20027;-77
2023/12/08 02:09:07;;;;;;;6.47;2.90;;;-5.20;99.90;;;;;;4979149;28;20033;-77
2023/12/08 02:11:34;;;;;;;6.80;4.45;;;-5.20;99.90;;;;;;4962090;28;20023;-77
2023/12/08 02:14:01;;;;;;;4.65;3.17;;;-5.30;99.90;;;;;;4979073;28;20085;-77
2023/12/08 02:16:45;;;;;;;10.38;3.97;;;-5.30;99.90;;;;;;4978763;28;20055;-77
2023/12/08 02:19:13;;;;;;;6.85;3.42;;;-5.30;99.90;;;;;;4959898;28;20063;-76
2023/12/08 02:21:39;;;;;;;7.05;4.25;;;-5.30;99.90;;;;;;4959927;28;20110;-77
2023/12/08 02:24:05;;;;;;;6.93;3.13;;;-5.20;99.90;;;;;;4977313;28;20023;-77
2023/12/08 02:26:31;;;;;;;9.32;3.95;;;-5.30;99.90;;;;;;4959706;28;20027;-77
2023/12/08 02:28:57;;;;;;;9.23;4.75;;;-5.30;99.90;;;;;;4978358;28;20034;-77
2023/12/08 02:31:32;;;;;;;7.78;4.55;;;-5.30;99.90;;;;;;4977941;28;20023;-77
2023/12/08 02:33:59;;;;;;;14.43;3.92;;;-5.40;99.90;;;;;;4975707;28;20551;-77
2023/12/08 02:36:26;;;;;;;6.78;3.95;;;-5.40;99.90;;;;;;4975213;28;20054;-76
2023/12/08 02:38:54;;;;;;;5.43;4.15;;;-5.50;99.90;;;;;;4976503;28;20027;-76
2023/12/08 02:41:19;;;;;;;5.22;3.03;;;-5.40;99.90;;;;;;4976952;28;20495;-76
2023/12/08 02:43:45;;;;;;;7.00;3.53;;;-5.50;99.90;;;;;;4959831;28;20035;-76
2023/12/08 02:46:11;;;;;;;7.47;3.83;;;-5.50;99.90;;;;;;4959154;28;20031;-77
2023/12/08 02:48:36;;;;;;;5.82;3.42;;;-5.50;99.90;;;;;;4959316;28;20062;-77
2023/12/08 02:51:03;;;;;;;5.18;3.38;;;-5.50;99.90;;;;;;4976592;28;20028;-76
2023/12/08 02:53:29;;;;;;;7.20;3.70;;;-5.50;99.90;;;;;;4976545;28;20519;-76
2023/12/08 02:55:54;;;;;;;12.85;4.25;;;-5.50;99.90;;;;;;4957769;28;20117;-77
2023/12/08 02:58:20;;;;;;;5.22;2.70;;;-5.60;99.90;;;;;;4976249;28;20026;-77
2023/12/08 03:00:46;;;;;;;5.95;3.08;;;-5.60;99.90;;;;;;4959234;28;20031;-77
2023/12/08 03:03:11;;;;;;;8.48;3.70;;;-5.60;99.90;;;;;;4976223;28;20105;-77
2023/12/08 03:05:37;;;;;;;7.53;4.40;;;-5.60;99.90;;;;;;4959079;28;20050;-77
2023/12/08 03:08:03;;;;;;;5.63;3.55;;;-5.60;99.90;;;;;;4975976;28;20027;-77
2023/12/08 03:10:28;;;;;;;6.93;3.72;;;-5.60;99.90;;;;;;4958799;28;20485;-76
2023/12/08 03:12:54;;;;;;;7.60;3.75;;;-5.70;99.90;;;;;;4976322;28;20086;-77
2023/12/08 03:15:20;;;;;;;7.55;3.42;;;-5.70;99.90;;;;;;4958845;28;20556;-77
2023/12/08 03:17:45;;;;;;;7.20;3.97;;;-5.70;99.90;;;;;;4958278;28;20038;-77
2023/12/08 03:20:11;;;;;;;6.78;3.67;;;-5.70;99.90;;;;;;4975968;28;20030;-76
2023/12/08 03:22:37;;;;;;;9.45;3.22;;;-5.80;99.90;;;;;;4976129;28;20493;-76
2023/12/08 03:25:02;;;;;;;7.82;3.97;;;-5.70;99.90;;;;;;4958783;28;20382;-76
2023/12/08 03:27:28;;;;;;;7.65;4.63;;;-5.80;99.90;;;;;;4958126;28;20593;-76
2023/12/08 03:29:53;;;;;;;7.95;4.28;;;-5.80;99.90;;;;;;4958745;28;20026;-76
2023/12/08 03:32:19;;;;;;;5.68;2.97;;;-5.80;99.90;;;;;;4975884;28;20030;-76
2023/12/08 03:34:45;;;;;;;9.35;4.18;;;-5.80;99.90;;;;;;4975769;28;20030;-77
2023/12/08 03:37:10;;;;;;;3.75;2.85;;;-5.80;99.90;;;;;;4975353;28;20033;-77
2023/12/08 03:39:36;;;;;;;6.43;4.03;;;-5.80;99.90;;;;;;4976103;28;20477;-77
2023/12/08 03:42:01;;;;;;;5.63;4.00;;;-5.80;99.90;;;;;;4975892;28;20022;-77
2023/12/08 03:44:27;;;;;;;6.85;3.75;;;-5.90;99.90;;;;;;4958525;28;20026;-77
2023/12/08 03:46:53;;;;;;;7.47;4.07;;;-5.90;99.90;;;;;;4975535;28;20517;-78
2023/12/08 03:49:18;;;;;;;8.20;3.85;;;-5.90;99.90;;;;;;4976487;28;20019;-76
2023/12/08 03:51:44;;;;;;;8.50;3.83;;;-5.90;99.90;;;;;;4975827;28;20066;-76
2023/12/08 03:54:09;;;;;;;9.25;3.88;;;-6.00;99.90;;;;;;4975642;28;20026;-76
2023/12/08 03:56:35;;;;;;;11.10;4.25;;;-6.00;99.90;;;;;;4975090;28;20027;-76
2023/12/08 03:59:00;;;;;;;8.70;3.90;;;-5.90;99.90;;;;;;4958262;28;20023;-76
2023/12/08 04:01:26;;;;;;;12.13;5.13;;;-5.80;99.90;;;;;;4958116;28;20516;-77
2023/12/08 04:03:52;;;;;;;4.28;3.42;;;-5.80;99.90;;;;;;4975518;28;20023;-76
2023/12/08 04:06:17;;;;;;;11.43;4.40;;;-5.80;99.90;;;;;;4973578;28;20030;-76
2023/12/08 04:08:43;;;;;;;11.75;4.00;;;-5.80;99.90;;;;;;4974898;28;20062;-76
2023/12/08 04:11:09;;;;;;;5.30;4.05;;;-5.70;99.90;;;;;;4957845;28;20415;-76
2023/12/08 04:13:35;;;;;;;9.23;3.90;;;-5.80;99.90;;;;;;4975352;28;20034;-76
2023/12/08 04:16:00;;;;;;;7.30;3.45;;;-5.70;99.90;;;;;;4957811;28;20022;-77
2023/12/08 04:18:26;;;;;;;4.55;3.17;;;-5.70;99.90;;;;;;4974924;28;20485;-77
2023/12/08 04:20:51;;;;;;;8.23;3.75;;;-5.80;99.90;;;;;;4957797;28;20034;-76
2023/12/08 04:23:17;;;;;;;9.93;4.28;;;-5.80;99.90;;;;;;4957830;28;20026;-77
2023/12/08 04:25:42;;;;;;;3.33;2.58;;;-5.80;99.90;;;;;;4957139;28;20027;-76
2023/12/08 04:28:08;;;;;;;4.97;3.53;;;-5.80;99.90;;;;;;4957164;28;20030;-77
2023/12/08 04:30:34;;;;;;;4.53;2.83;;;-5.80;99.90;;;;;;4957598;28;20022;-76
2023/12/08 04:32:59;;;;;;;8.75;4.35;;;-5.80;99.90;;;;;;4975027;28;20058;-76
2023/12/08 04:35:25;;;;;;;7.38;3.83;;;-5.80;99.90;;;;;;4973385;28;20489;-76
2023/12/08 04:37:50;;;;;;;6.32;3.42;;;-5.70;99.90;;;;;;4974341;28;20126;-77
2023/12/08 04:40:17;;;;;;;4.85;3.28;;;-5.70;99.90;;;;;;4974756;28;20501;-79
2023/12/08 04:42:44;;;;;;;12.60;4.70;;;-5.70;99.90;;;;;;4973619;28;20397;-76
2023/12/08 04:45:10;;;;;;;5.38;2.42;;;-5.70;99.90;;;;;;4974893;28;20034;-76
2023/12/08 04:47:36;;;;;;;4.60;3.17;;;-5.60;99.90;;;;;;4956881;28;20050;-76
2023/12/08 04:50:02;;;;;;;9.55;4.18;;;-5.60;99.90;;;;;;4957137;28;20029;-76
2023/12/08 04:52:28;;;;;;;7.25;3.72;;;-5.50;99.90;;;;;;4974473;28;20023;-76
2023/12/08 04:54:54;;;;;;;4.68;2.92;;;-5.60;99.90;;;;;;4974566;28;20023;-77
2023/12/08 04:57:20;;;;;;;5.35;3.65;;;-5.50;99.90;;;;;;4956850;28;20023;-76
2023/12/08 04:59:45;;;;;;;8.98;4.47;;;-5.60;99.90;;;;;;4957027;28;20035;-76
2023/12/08 05:02:11;;;;;;;11.77;3.95;;;-5.50;99.90;;;;;;4974902;28;20035;-77
2023/12/08 05:04:37;;;;;;;7.28;2.58;;;-5.50;99.90;;;;;;4974287;28;20073;-76
2023/12/08 05:07:03;;;;;;;7.68;3.55;;;-5.60;99.90;;;;;;4972743;28;20030;-76
2023/12/08 05:09:28;;;;;;;6.18;3.30;;;-5.60;99.90;;;;;;4957047;28;20118;-76
2023/12/08 05:11:54;;;;;;;5.47;3.17;;;-5.60;99.90;;;;;;4974779;28;20097;-77
2023/12/08 05:14:20;;;;;;;7.72;2.72;;;-5.70;99.90;;;;;;4956946;28;20035;-76
2023/12/08 05:16:46;;;;;;;9.68;3.22;;;-5.70;99.90;;;;;;4956114;28;20019;-77
2023/12/08 05:19:11;;;;;;;8.82;2.85;;;-5.70;99.90;;;;;;5025503;23;20046;-74
2023/12/08 05:21:37;;;;;;;7.97;3.17;;;-5.70;99.90;;;;;;5012938;28;20109;-74
2023/12/08 05:24:03;;;;;;;4.18;2.95;;;-5.70;99.90;;;;;;5013036;28;20018;-74
2023/12/08 05:26:28;;;;;;;6.45;3.53;;;-5.70;99.90;;;;;;4994835;28;20484;-73
2023/12/08 05:28:54;;;;;;;8.32;2.80;;;-5.70;99.90;;;;;;4979553;28;20052;-74
2023/12/08 05:31:19;;;;;;;8.55;3.85;;;-5.60;99.90;;;;;;4993248;28;20022;-73
2023/12/08 05:33:45;;;;;;;5.45;3.33;;;-5.60;99.90;;;;;;4975981;28;20473;-73
2023/12/08 05:36:11;;;;;;;7.70;4.38;;;-5.60;99.90;;;;;;4975444;28;20062;-74
2023/12/08 05:38:36;;;;;;;11.40;3.85;;;-5.60;99.90;;;;;;4975338;28;20034;-74
2023/12/08 05:41:03;;;;;;;6.60;3.40;;;-5.70;99.90;;;;;;4993331;28;20088;-74
2023/12/08 05:43:29;;;;;;;6.10;2.88;;;-5.60;99.90;;;;;;4975629;28;20037;-74
2023/12/08 05:45:54;;;;;;;6.22;3.72;;;-5.50;99.90;;;;;;4975327;28;20023;-75
2023/12/08 05:48:21;;;;;;;9.85;3.95;;;-5.50;99.90;;;;;;4975434;28;20539;-74
2023/12/08 05:50:46;;;;;;;5.68;3.92;;;-5.60;99.90;;;;;;4994883;28;20025;-73
2023/12/08 05:53:13;;;;;;;4.28;3.88;;;-5.60;99.90;;;;;;4994713;28;20026;-74
2023/12/08 05:55:39;;;;;;;6.15;3.65;;;-5.50;99.90;;;;;;4997053;28;20484;-74
2023/12/08 05:58:04;;;;;;;8.02;4.88;;;-5.60;99.90;;;;;;4975503;28;20076;-74
2023/12/08 06:00:30;;;;;;;5.15;4.32;;;-5.60;99.90;;;;;;4975680;28;20030;-73
2023/12/08 06:02:55;;;;;;;5.90;3.47;;;-5.60;99.90;;;;;;4992547;28;20034;-73
2023/12/08 06:05:21;;;;;;;7.93;3.67;;;-5.60;99.90;;;;;;4975454;28;20026;-74
2023/12/08 06:07:47;;;;;;;11.55;5.60;;;-5.50;99.90;;;;;;4992718;28;20193;-74
2023/12/08 06:10:12;;;;;;;5.40;4.05;;;-5.60;99.90;;;;;;4992389;28;20106;-74
2023/12/08 06:12:39;;;;;;;8.52;4.78;;;-3.60;99.90;;;;;;4993695;28;20022;-74
2023/12/08 06:15:06;;;;;;;7.35;4.03;;;-4.00;99.90;;;;;;4993081;28;20023;-74
2023/12/08 06:17:32;;;;;;;7.93;4.90;;;-4.60;99.90;;;;;;4976232;28;20036;-73
2023/12/08 06:19:57;;;;;;;8.85;4.25;;;-4.80;99.90;;;;;;4976729;28;20117;-74
2023/12/08 06:22:23;;;;;;;6.18;3.28;;;-4.80;99.90;;;;;;4975515;28;20037;-74
2023/12/08 06:24:49;;;;;;;6.43;3.85;;;-4.90;99.90;;;;;;4975246;28;20068;-73
2023/12/08 06:27:15;;;;;;;4.85;3.85;;;-5.00;99.90;;;;;;4992085;28;20080;-73
2023/12/08 06:29:41;;;;;;;7.15;4.13;;;-5.10;99.90;;;;;;4975162;28;20022;-74
2023/12/08 06:32:06;;;;;;;8.82;4.93;;;-5.10;99.90;;;;;;4978481;28;20121;-74
2023/12/08 06:34:32;;;;;;;7.40;4.25;;;-5.10;99.90;;;;;;4978941;28;20030;-74
2023/12/08 06:36:58;;;;;;;9.38;3.53;;;-5.10;99.90;;;;;;4978874;28;20084;-73
2023/12/08 06:39:24;;;;;;;9.80;3.78;;;-5.10;99.90;;;;;;4996101;28;20018;-74
2023/12/08 06:41:49;;;;;;;7.38;3.70;;;-5.10;99.90;;;;;;4996055;28;20022;-74
2023/12/08 06:44:15;;;;;;;7.45;3.60;;;-5.20;99.90;;;;;;4978775;28;20019;-74
2023/12/08 06:46:42;;;;;;;12.55;3.30;;;-5.10;99.90;;;;;;4995936;28;20018;-74
2023/12/08 06:49:08;;;;;;;8.60;3.88;;;-5.20;99.90;;;;;;4995886;28;20030;-73
2023/12/08 06:51:35;;;;;;;5.50;3.33;;;-5.20;99.90;;;;;;4978163;28;20169;-74
2023/12/08 06:54:02;;;;;;;5.07;3.35;;;-5.20;99.90;;;;;;4994656;28;20030;-73
2023/12/08 06:56:28;;;;;;;23.38;8.30;;;-5.20;99.90;;;;;;4978023;28;20050;-74
2023/12/08 06:58:53;;;;;;;41.53;17.83;;;-5.10;99.90;;;;;;4994750;28;20508;-74
2023/12/08 07:01:19;;;;;;;37.38;17.63;;;-5.00;99.90;;;;;;4978816;28;20480;-74
2023/12/08 07:03:44;;;;;;;17.60;10.85;;;-4.90;99.90;;;;;;4996279;28;20031;-74
2023/12/08 07:06:10;;;;;;;10.95;5.70;;;-5.00;99.90;;;;;;4979264;28;20463;-74
2023/12/08 07:08:36;;;;;;;8.75;4.32;;;-5.00;99.90;;;;;;4980333;28;20035;-74
2023/12/08 07:11:02;;;;;;;7.35;4.50;;;-5.00;99.90;;;;;;5002506;28;20031;-74
2023/12/08 07:13:28;;;;;;;8.27;4.45;;;-5.00;99.90;;;;;;4988379;28;20022;-74
2023/12/08 07:15:53;;;;;;;7.15;4.82;;;-5.00;99.90;;;;;;4993811;28;20066;-73
2023/12/08 07:18:19;;;;;;;21.98;6.22;;;-5.10;99.90;;;;;;4992177;28;20045;-73
2023/12/08 07:20:45;;;;;;;16.10;6.43;;;-5.10;99.90;;;;;;5008537;28;20054;-74
2023/12/08 07:23:10;;;;;;;9.68;5.55;;;-5.00;99.90;;;;;;5006605;28;20046;-74
2023/12/08 07:25:36;;;;;;;14.57;6.00;;;-5.30;99.90;;;;;;5003382;28;20026;-74
2023/12/08 07:28:02;;;;;;;11.23;5.75;;;-5.00;99.90;;;;;;4981173;28;20037;-74
2023/12/08 07:30:27;;;;;;;9.23;5.78;;;-5.00;99.90;;;;;;5015687;28;20029;-74
2023/12/08 07:32:53;;;;;;;15.52;6.78;;;-5.10;99.90;;;;;;5017479;28;20023;-74
2023/12/08 07:35:19;;;;;;;8.93;5.90;;;-5.00;99.90;;;;;;5018247;28;20014;-74
2023/12/08 07:37:45;;;;;;;13.20;6.75;;;-4.90;99.90;;;;;;5000790;28;20030;-74
2023/12/08 07:40:11;;;;;;;9.50;5.35;;;-4.90;99.90;;;;;;5018189;28;20025;-74
2023/12/08 07:42:37;;;;;;;10.07;5.82;;;-4.90;99.90;;;;;;5017171;28;20037;-74
2023/12/08 07:45:06;;;;;;;12.32;4.72;;;-4.90;99.90;;;;;;5017979;28;20082;-75
2023/12/08 07:47:32;;;;;;;12.32;6.57;;;-4.80;99.90;;;;;;5000760;28;20754;-74
2023/12/08 07:49:58;;;;;;;14.73;7.00;;;-4.80;99.90;;;;;;5017716;28;20030;-74
2023/12/08 07:52:25;;;;;;;13.60;5.88;;;-4.70;99.90;;;;;;5017813;28;20018;-75
2023/12/08 07:54:50;;;;;;;19.65;7.03;;;-4.70;99.90;;;;;;5017346;28;20022;-74
2023/12/08 07:57:16;;;;;;;19.85;7.07;;;-4.80;99.90;;;;;;5017556;28;20021;-75
2023/12/08 07:59:41;;;;;;;14.10;7.30;;;-4.70;99.90;;;;;;5017612;28;20018;-75
2023/12/08 08:02:07;;;;;;;13.07;7.07;;;-4.60;99.90;;;;;;5018416;28;20041;-74
2023/12/08 08:04:33;;;;;;;12.48;6.35;;;-4.60;99.90;;;;;;5000930;28;20026;-75
2023/12/08 08:06:58;;;;;;;12.25;6.20;;;-4.40;99.90;;;;;;4995791;28;20030;-74
2023/12/08 08:09:24;;;;;;;9.38;6.38;;;-4.30;99.90;;;;;;4978027;28;20026;-74
2023/12/08 08:11:49;;;;;;;10.32;5.28;;;-4.10;99.90;;;;;;4977853;28;20495;-74
2023/12/08 08:14:15;;;;;;;9.43;5.43;;;-4.00;99.90;;;;;;4994818;28;20523;-74
2023/12/08 08:16:41;;;;;;;10.77;6.53;;;-3.80;99.90;;;;;;4977030;28;20081;-74
2023/12/08 08:19:08;;;;;;;7.40;5.00;;;-3.80;99.90;;;;;;4977089;28;20034;-74
2023/12/08 08:21:34;;;;;;;10.10;5.63;;;-3.80;99.90;;;;;;4994736;28;20050;-74
2023/12/08 08:23:59;;;;;;;8.98;5.90;;;-3.70;99.90;;;;;;4993096;28;20030;-74
2023/12/08 08:26:25;;;;;;;8.70;4.40;;;-3.70;99.90;;;;;;4994078;28;20372;-72
2023/12/08 08:28:51;;;;;;;8.23;5.00;;;-3.80;99.90;;;;;;4994166;28;20030;-74
2023/12/08 08:31:17;;;;;;;13.88;5.25;;;-3.60;99.90;;;;;;4977190;28;20117;-73
2023/12/08 08:33:43;;;;;;;9.20;5.10;;;-3.60;99.90;;;;;;4994604;28;20022;-74
2023/12/08 08:36:10;;;;;;;11.60;5.78;;;-3.50;99.90;;;;;;4976638;28;20148;-73
2023/12/08 08:38:35;;;;;;;10.18;5.03;;;-3.50;99.90;;;;;;4992472;28;20113;-74
2023/12/08 08:41:02;;;;;;;12.02;6.72;;;-3.50;99.90;;;;;;4976773;28;20058;-74
2023/12/08 08:43:27;;;;;;;9.55;6.63;;;-3.70;99.90;;;;;;4976846;28;20488;-73
2023/12/08 08:45:53;;;;;;;11.68;5.97;;;-3.50;99.90;;;;;;4994532;28;20030;-73
2023/12/08 08:48:19;;;;;;;7.03;5.35;;;-3.50;99.90;;;;;;4996285;28;20030;-74
2023/12/08 08:50:44;;;;;;;10.85;6.13;;;-3.40;99.90;;;;;;4977937;28;20026;-74
2023/12/08 08:53:10;;;;;;;15.40;6.57;;;-3.00;99.90;;;;;;4995901;28;20107;-74
2023/12/08 08:55:35;;;;;;;8.77;5.13;;;-3.30;99.90;;;;;;4994443;28;20050;-73
2023/12/08 08:58:01;;;;;;;8.68;4.72;;;-3.30;99.90;;;;;;4995570;28;20031;-74
2023/12/08 09:00:27;;;;;;;8.68;5.35;;;-3.10;99.90;;;;;;4997025;28;20030;-74
2023/12/08 09:02:52;;;;;;;8.05;4.90;;;-3.20;99.90;;;;;;4979210;28;20089;-74
2023/12/08 09:05:19;;;;;;;11.48;5.32;;;-3.10;99.90;;;;;;4978864;28;20030;-74
2023/12/08 09:07:45;;;;;;;16.10;7.03;;;-3.00;99.90;;;;;;4995264;28;20436;-74
2023/12/08 09:10:11;;;;;;;9.05;5.53;;;-2.90;99.90;;;;;;4978230;28;20076;-74
2023/12/08 09:12:36;;;;;;;11.63;5.95;;;-2.80;99.90;;;;;;4993458;28;20026;-74
2023/12/08 09:15:03;;;;;;;18.75;6.32;;;-2.70;99.90;;;;;;4975812;28;20495;-74
2023/12/08 09:17:29;;;;;;;10.10;5.80;;;-2.60;99.90;;;;;;4993087;28;20038;-74
2023/12/08 09:19:55;;;;;;;13.80;9.07;;;-2.50;99.90;;;;;;4976015;28;20030;-74
2023/12/08 09:22:21;;;;;;;11.80;7.07;;;-2.50;99.90;;;;;;4976066;28;20026;-74
2023/12/08 09:24:46;;;;;;;14.35;6.63;;;-2.40;99.90;;;;;;4993668;28;20038;-74
2023/12/08 09:27:12;;;;;;;9.52;5.15;;;-2.30;99.90;;;;;;4993425;28;20514;-74
2023/12/08 09:29:37;;;;;;;8.38;5.80;;;-2.30;99.90;;;;;;4993584;28;20500;-74
2023/12/08 09:32:03;;;;;;;11.15;6.55;;;-2.20;99.90;;;;;;4993244;28;20049;-74
2023/12/08 09:34:29;;;;;;;8.93;5.80;;;-2.10;99.90;;;;;;4993103;28;20028;-74
2023/12/08 09:36:55;;;;;;;10.80;6.07;;;-2.00;99.90;;;;;;4992318;28;20026;-74
2023/12/08 09:39:21;;;;;;;10.52;6.00;;;-1.90;99.90;;;;;;4975586;28;20018;-74
2023/12/08 09:41:49;;;;;;;11.10;5.78;;;-1.80;99.90;;;;;;4992843;28;20077;-74
2023/12/08 09:44:15;;;;;;;14.65;7.50;;;-1.70;99.90;;;;;;4975702;28;20018;-75
2023/12/08 09:46:44;;;;;;;14.23;6.97;;;-1.60;99.90;;;;;;4992663;28;20023;-74
2023/12/08 09:49:33;;;;;;;39.92;13.70;;;-1.50;99.90;;;;;;4992785;28;20026;-74
2023/12/08 09:51:59;;;;;;;16.88;8.98;;;-1.40;99.90;;;;;;4975260;28;20483;-74
2023/12/08 09:54:26;;;;;;;19.92;6.95;;;-1.30;99.90;;;;;;4993116;28;20088;-74
2023/12/08 09:56:52;;;;;;;8.55;5.13;;;-1.20;99.90;;;;;;4994427;28;20407;-74
2023/12/08 09:59:23;;;;;;;11.02;6.07;;;-1.20;99.90;;;;;;4976750;28;20034;-74
2023/12/08 10:01:49;;;;;;;10.35;5.60;;;-1.20;99.90;;;;;;4992761;28;20030;-74
2023/12/08 10:04:14;;;;;;;12.75;6.43;;;-1.10;99.90;;;;;;4977477;28;20022;-74
2023/12/08 10:06:40;;;;;;;16.42;8.07;;;-1.00;99.90;;;;;;4980320;28;20042;-74
2023/12/08 10:09:07;;;;;;;33.15;12.88;;;-1.20;99.90;;;;;;4985568;28;20030;-74
2023/12/08 10:11:33;;;;;;;21.88;10.32;;;-1.10;99.90;;;;;;4986350;28;20046;-74
2023/12/08 10:14:00;;;;;;;11.48;6.38;;;-1.10;99.90;;;;;;5004088;28;20026;-74
2023/12/08 10:16:26;;;;;;;9.30;6.53;;;-1.00;99.90;;;;;;5002991;28;20023;-74
2023/12/08 10:19:06;;;;;;;8.90;5.70;;;-1.00;99.90;;;;;;5001620;28;20058;-74
2023/12/08 10:21:32;;;;;;;11.32;6.57;;;-0.90;99.90;;;;;;4980913;28;20026;-73
2023/12/08 10:24:02;;;;;;;12.48;7.07;;;-0.70;99.90;;;;;;4996548;28;20026;-74
2023/12/08 10:26:29;;;;;;;11.55;6.43;;;-0.70;99.90;;;;;;4996276;28;20030;-74
2023/12/08 10:28:56;;;;;;;12.68;6.57;;;-0.60;99.90;;;;;;4995165;28;20022;-74
2023/12/08 10:31:22;;;;;;;14.55;6.88;;;-0.60;99.90;;;;;;4978678;28;20395;-73
2023/12/08 10:33:48;;;;;;;9.60;6.35;;;-0.50;99.90;;;;;;4995836;28;20034;-74
2023/12/08 10:36:15;;;;;;;11.23;6.60;;;-0.40;99.90;;;;;;4978249;28;20088;-74
2023/12/08 10:38:41;;;;;;;11.77;6.22;;;-0.50;99.90;;;;;;4995820;28;20472;-74
2023/12/08 10:41:09;;;;;;;12.75;7.13;;;-0.50;99.90;;;;;;4995731;28;20563;-74
2023/12/08 10:43:36;;;;;;;11.75;6.75;;;-0.40;99.90;;;;;;4977953;28;20058;-75
2023/12/08 10:46:03;;;;;;;11.15;8.48;;;2.60;99.90;;;;;;4995605;28;20105;-75
2023/12/08 10:48:29;;;;;;;12.68;6.78;;;1.60;99.90;;;;;;4995787;28;20081;-74
2023/12/08 10:50:56;;;;;;;15.65;9.18;;;1.10;99.90;;;;;;4978176;28;20031;-75
2023/12/08 10:53:22;;;;;;;13.25;8.48;;;1.00;99.90;;;;;;4995667;28;20022;-74
2023/12/08 10:56:00;;;;;;;25.35;9.20;;;0.40;99.90;;;;;;4978026;28;20579;-74
2023/12/08 10:58:28;;;;;;;15.02;8.63;;;0.50;99.90;;;;;;4995773;28;20166;-74
2023/12/08 11:00:54;;;;;;;34.45;14.60;;;0.60;99.90;;;;;;4994391;28;20117;-74
2023/12/08 11:03:21;;;;;;;17.67;10.95;;;0.50;99.90;;;;;;4995635;28;20072;-74
2023/12/08 11:05:59;;;;;;;16.33;9.85;;;0.50;99.90;;;;;;4977927;28;20113;-74
2023/12/08 11:08:27;;;;;;;12.13;7.55;;;0.40;99.90;;;;;;4994097;28;20034;-74
2023/12/08 11:10:56;;;;;;;17.98;10.57;;;0.30;99.90;;;;;;4995484;28;20606;-74
2023/12/08 11:13:28;;;;;;;14.57;9.23;;;0.30;99.90;;;;;;4978011;28;20057;-74
2023/12/08 11:16:24;;;;;;;26.38;12.88;;;0.70;99.90;;;;;;4977594;28;20023;-74
2023/12/08 11:18:52;;;;;;;10.13;6.80;;;0.80;99.90;;;;;;4976895;28;20034;-74
2023/12/08 11:21:18;;;;;;;34.22;13.13;;;1.00;99.90;;;;;;4995237;28;20045;-74
2023/12/08 11:23:45;;;;;;;16.98;9.18;;;1.00;99.90;;;;;;4995064;28;20481;-74
2023/12/08 11:26:46;;;;;;;16.90;9.52;;;1.10;99.90;;;;;;4993548;28;20033;-74
2023/12/08 11:29:19;;;;;;;23.73;13.02;;;1.10;99.90;;;;;;4984251;28;20038;-74
2023/12/08 11:32:04;;;;;;;28.08;14.45;;;2.00;99.90;;;;;;4994695;28;20109;-74
2023/12/08 11:34:36;;;;;;;16.08;7.82;;;1.80;99.90;;;;;;4994244;28;20080;-73
2023/12/08 11:37:02;;;;;;;16.38;8.13;;;1.60;99.90;;;;;;4994157;28;20022;-74
2023/12/08 11:39:37;;;;;;;8.98;5.10;;;1.60;99.90;;;;;;4994556;28;20748;-73
2023/12/08 11:42:07;;;;;;;8.50;5.28;;;1.60;99.90;;;;;;4995014;28;20427;-73
2023/12/08 11:44:34;;;;;;;11.93;5.75;;;1.70;99.90;;;;;;4976653;28;20026;-74
2023/12/08 11:47:00;;;;;;;8.43;5.10;;;1.60;99.90;;;;;;4994256;28;20058;-74
2023/12/08 11:49:26;;;;;;;14.73;6.00;;;1.50;99.90;;;;;;4981081;28;20520;-72
2023/12/08 11:52:11;;;;;;;12.88;6.43;;;1.40;99.90;;;;;;4957700;28;20070;-72
2023/12/08 11:54:58;;;;;;;8.95;5.13;;;1.50;99.90;;;;;;4975160;28;20029;-73
2023/12/08 11:57:24;;;;;;;12.82;5.43;;;1.70;99.90;;;;;;4957396;28;20023;-73
2023/12/08 11:59:50;;;;;;;13.95;5.72;;;1.60;99.90;;;;;;4957688;28;20027;-73
2023/12/08 12:02:16;;;;;;;10.68;5.43;;;1.70;99.90;;;;;;4974721;28;20688;-73
2023/12/08 12:04:42;;;;;;;10.40;5.72;;;1.70;99.90;;;;;;4957619;28;20061;-73
2023/12/08 12:07:08;;;;;;;8.07;5.60;;;1.90;99.90;;;;;;4956950;28;20034;-74
2023/12/08 12:09:35;;;;;;;10.80;5.60;;;2.00;99.90;;;;;;4974769;28;20023;-74
2023/12/08 12:12:12;;;;;;;28.52;13.05;;;1.90;99.90;;;;;;4974978;28;20065;-74
2023/12/08 12:14:46;;;;;;;17.75;9.18;;;1.80;99.90;;;;;;4974814;28;20026;-73
2023/12/08 12:17:12;;;;;;;14.10;8.88;;;1.80;99.90;;;;;;4956988;28;20113;-73
2023/12/08 12:19:38;;;;;;;15.80;7.28;;;1.80;99.90;;;;;;4975169;28;20019;-73
2023/12/08 12:22:04;;;;;;;15.80;7.93;;;1.70;99.90;;;;;;4957325;28;20029;-73
2023/12/08 12:24:30;;;;;;;13.05;7.05;;;1.50;99.90;;;;;;4974545;28;20077;-73
2023/12/08 12:26:56;;;;;;;13.00;7.78;;;1.30;99.90;;;;;;4956700;28;20117;-73
2023/12/08 12:29:23;;;;;;;11.45;8.15;;;1.40;99.90;;;;;;4956850;28;20085;-73
2023/12/08 12:31:49;;;;;;;9.25;6.03;;;1.40;99.90;;;;;;4957076;28;20465;-73
2023/12/08 12:34:15;;;;;;;12.18;6.63;;;1.40;99.90;;;;;;4974330;28;20026;-73
2023/12/08 12:36:41;;;;;;;11.15;6.85;;;1.20;99.90;;;;;;4974012;28;20026;-73
2023/12/08 12:39:07;;;;;;;11.70;6.32;;;1.20;99.90;;;;;;4974080;28;20034;-73